Michurinsk, Russia
Current Conditions -  °F | °C
As of 9:30 PM on Friday 24 Oct 2014 (Local Time) from UUOO Reporting Station
Clear Clear  
Wind Chill: 15°   Ceiling: Unl
Heat Index: 23°   Visibility: 6mi
Dew Point: 16°   Wind: 7mph
Humidity: 74%   Direction: 360°N
Pressure: 30.5"   Gusts: NA
Location:  52.9°N, 40.5°E
Report Text: UUOO 241830Z 36003MPS CAVOK M05/M09 Q1033 NOSIG RMK 30090070
Loading
Personal Weather Stations






























Interactive Weather Map
Tropical Storm Tracking
New forecast layout! Learn more

10-Day Weather Forecast

Advertisements
Track Severe Weather on mobile